sensor_id;sensor_type;location;lat;lon;timestamp;temperature;humidity
69418;DHT22;56610;48.872;2.400;2022-09-09T00:02:27;19.80;99.90
69418;DHT22;56610;48.872;2.400;2022-09-09T00:05:09;19.70;99.90
69418;DHT22;56610;48.872;2.400;2022-09-09T00:07:50;19.70;99.90
69418;DHT22;56610;48.872;2.400;2022-09-09T00:10:38;19.90;99.90
69418;DHT22;56610;48.872;2.400;2022-09-09T00:16:10;20.00;99.90
69418;DHT22;56610;48.872;2.400;2022-09-09T00:19:01;19.80;99.90
69418;DHT22;56610;48.872;2.400;2022-09-09T00:21:37;19.80;99.90
69418;DHT22;56610;48.872;2.400;2022-09-09T00:26:55;19.60;99.90
69418;DHT22;56610;48.872;2.400;2022-09-09T00:32:09;19.60;99.90
69418;DHT22;56610;48.872;2.400;2022-09-09T00:34:37;19.60;99.90
69418;DHT22;56610;48.872;2.400;2022-09-09T00:37:04;19.60;99.90
69418;DHT22;56610;48.872;2.400;2022-09-09T00:39:42;19.60;99.90
69418;DHT22;56610;48.872;2.400;2022-09-09T00:42:17;19.70;99.90
69418;DHT22;56610;48.872;2.400;2022-09-09T00:45:05;19.60;99.90
69418;DHT22;56610;48.872;2.400;2022-09-09T00:56:11;19.20;99.90
69418;DHT22;56610;48.872;2.400;2022-09-09T00:58:38;19.10;99.90
69418;DHT22;56610;48.872;2.400;2022-09-09T01:01:11;19.20;99.90
69418;DHT22;56610;48.872;2.400;2022-09-09T01:03:38;19.20;99.90
69418;DHT22;56610;48.872;2.400;2022-09-09T01:22:34;19.10;99.90
69418;DHT22;56610;48.872;2.400;2022-09-09T01:28:25;19.00;99.90
69418;DHT22;56610;48.872;2.400;2022-09-09T01:30:51;19.00;99.90
69418;DHT22;56610;48.872;2.400;2022-09-09T01:33:18;19.10;99.90
69418;DHT22;56610;48.872;2.400;2022-09-09T01:36:13;19.10;99.90
69418;DHT22;56610;48.872;2.400;2022-09-09T01:38:41;19.20;99.90
69418;DHT22;56610;48.872;2.400;2022-09-09T01:41:07;19.20;99.90
69418;DHT22;56610;48.872;2.400;2022-09-09T01:43:32;19.00;99.90
69418;DHT22;56610;48.872;2.400;2022-09-09T01:46:00;19.00;99.90
69418;DHT22;56610;48.872;2.400;2022-09-09T01:48:27;19.10;99.90
69418;DHT22;56610;48.872;2.400;2022-09-09T01:50:53;19.20;99.90
69418;DHT22;56610;48.872;2.400;2022-09-09T01:53:20;19.10;99.90
69418;DHT22;56610;48.872;2.400;2022-09-09T01:59:36;19.00;99.90
69418;DHT22;56610;48.872;2.400;2022-09-09T02:02:11;19.00;99.90
69418;DHT22;56610;48.872;2.400;2022-09-09T02:04:44;19.10;99.90
69418;DHT22;56610;48.872;2.400;2022-09-09T02:09:49;19.10;99.90
69418;DHT22;56610;48.872;2.400;2022-09-09T02:12:19;19.20;99.90
69418;DHT22;56610;48.872;2.400;2022-09-09T02:14:51;19.00;99.90
69418;DHT22;56610;48.872;2.400;2022-09-09T02:17:31;19.00;99.90
69418;DHT22;56610;48.872;2.400;2022-09-09T02:20:11;19.10;99.90
69418;DHT22;56610;48.872;2.400;2022-09-09T02:22:39;19.20;99.90
69418;DHT22;56610;48.872;2.400;2022-09-09T02:25:08;19.20;99.90
69418;DHT22;56610;48.872;2.400;2022-09-09T02:27:36;19.10;99.90
69418;DHT22;56610;48.872;2.400;2022-09-09T02:30:03;19.00;99.90
69418;DHT22;56610;48.872;2.400;2022-09-09T02:32:31;18.90;99.90
69418;DHT22;56610;48.872;2.400;2022-09-09T02:35:12;19.00;99.90
69418;DHT22;56610;48.872;2.400;2022-09-09T02:37:41;19.00;99.90
69418;DHT22;56610;48.872;2.400;2022-09-09T02:40:09;18.90;99.90
69418;DHT22;56610;48.872;2.400;2022-09-09T02:42:43;19.00;99.90
69418;DHT22;56610;48.872;2.400;2022-09-09T02:45:11;19.00;99.90
69418;DHT22;56610;48.872;2.400;2022-09-09T02:47:38;19.10;99.90
69418;DHT22;56610;48.872;2.400;2022-09-09T02:55:58;18.80;99.90
69418;DHT22;56610;48.872;2.400;2022-09-09T02:58:26;18.70;99.90
69418;DHT22;56610;48.872;2.400;2022-09-09T03:00:52;18.80;99.90
69418;DHT22;56610;48.872;2.400;2022-09-09T03:03:19;18.80;99.90
69418;DHT22;56610;48.872;2.400;2022-09-09T03:05:45;18.80;99.90
69418;DHT22;56610;48.872;2.400;2022-09-09T03:08:12;18.90;99.90
69418;DHT22;56610;48.872;2.400;2022-09-09T03:10:38;18.90;99.90
69418;DHT22;56610;48.872;2.400;2022-09-09T03:13:04;18.80;99.90
69418;DHT22;56610;48.872;2.400;2022-09-09T03:15:31;18.80;99.90
69418;DHT22;56610;48.872;2.400;2022-09-09T03:17:58;18.80;99.90
69418;DHT22;56610;48.872;2.400;2022-09-09T03:20:25;18.60;99.90
69418;DHT22;56610;48.872;2.400;2022-09-09T03:22:52;18.70;99.90
69418;DHT22;56610;48.872;2.400;2022-09-09T03:25:18;18.70;99.90
69418;DHT22;56610;48.872;2.400;2022-09-09T03:27:44;18.60;99.90
69418;DHT22;56610;48.872;2.400;2022-09-09T03:30:10;18.60;99.90
69418;DHT22;56610;48.872;2.400;2022-09-09T03:32:36;18.60;99.90
69418;DHT22;56610;48.872;2.400;2022-09-09T03:35:02;18.60;99.90
69418;DHT22;56610;48.872;2.400;2022-09-09T03:37:28;18.50;99.90
69418;DHT22;56610;48.872;2.400;2022-09-09T03:39:53;18.60;99.90
69418;DHT22;56610;48.872;2.400;2022-09-09T03:42:22;18.60;99.90
69418;DHT22;56610;48.872;2.400;2022-09-09T03:44:48;18.60;99.90
69418;DHT22;56610;48.872;2.400;2022-09-09T03:47:18;18.50;99.90
69418;DHT22;56610;48.872;2.400;2022-09-09T03:49:44;18.60;99.90
69418;DHT22;56610;48.872;2.400;2022-09-09T03:52:10;18.60;99.90
69418;DHT22;56610;48.872;2.400;2022-09-09T03:54:35;18.70;99.90
69418;DHT22;56610;48.872;2.400;2022-09-09T03:57:01;18.70;99.90
69418;DHT22;56610;48.872;2.400;2022-09-09T03:59:27;18.80;99.90
69418;DHT22;56610;48.872;2.400;2022-09-09T04:01:53;18.80;99.90
69418;DHT22;56610;48.872;2.400;2022-09-09T04:04:20;18.90;99.90
69418;DHT22;56610;48.872;2.400;2022-09-09T04:06:46;18.90;99.90
69418;DHT22;56610;48.872;2.400;2022-09-09T04:09:13;18.90;99.90
69418;DHT22;56610;48.872;2.400;2022-09-09T04:11:39;18.90;99.90
69418;DHT22;56610;48.872;2.400;2022-09-09T04:14:05;18.70;99.90
69418;DHT22;56610;48.872;2.400;2022-09-09T04:16:34;18.80;99.90
69418;DHT22;56610;48.872;2.400;2022-09-09T04:19:03;18.70;99.90
69418;DHT22;56610;48.872;2.400;2022-09-09T04:21:30;18.70;99.90
69418;DHT22;56610;48.872;2.400;2022-09-09T04:23:55;18.80;99.90
69418;DHT22;56610;48.872;2.400;2022-09-09T04:26:21;18.90;99.90
69418;DHT22;56610;48.872;2.400;2022-09-09T04:28:47;18.90;99.90
69418;DHT22;56610;48.872;2.400;2022-09-09T04:31:18;18.80;99.90
69418;DHT22;56610;48.872;2.400;2022-09-09T04:33:45;18.70;99.90
69418;DHT22;56610;48.872;2.400;2022-09-09T04:36:12;18.70;99.90
69418;DHT22;56610;48.872;2.400;2022-09-09T04:38:38;18.50;99.90
69418;DHT22;56610;48.872;2.400;2022-09-09T04:41:04;18.50;99.90
69418;DHT22;56610;48.872;2.400;2022-09-09T04:43:29;18.50;99.90
69418;DHT22;56610;48.872;2.400;2022-09-09T04:45:56;18.50;99.90
69418;DHT22;56610;48.872;2.400;2022-09-09T04:48:22;18.50;99.90
69418;DHT22;56610;48.872;2.400;2022-09-09T04:51:05;18.40;99.90
69418;DHT22;56610;48.872;2.400;2022-09-09T04:53:31;18.40;99.90
69418;DHT22;56610;48.872;2.400;2022-09-09T04:56:03;18.40;99.90
69418;DHT22;56610;48.872;2.400;2022-09-09T04:58:30;18.60;99.90
69418;DHT22;56610;48.872;2.400;2022-09-09T05:01:03;18.70;99.90
69418;DHT22;56610;48.872;2.400;2022-09-09T05:03:28;18.80;99.90
69418;DHT22;56610;48.872;2.400;2022-09-09T05:05:54;18.70;99.90
69418;DHT22;56610;48.872;2.400;2022-09-09T05:08:19;18.60;99.90
69418;DHT22;56610;48.872;2.400;2022-09-09T05:10:46;18.70;99.90
69418;DHT22;56610;48.872;2.400;2022-09-09T05:13:11;18.50;99.90
69418;DHT22;56610;48.872;2.400;2022-09-09T05:15:37;18.50;99.90
69418;DHT22;56610;48.872;2.400;2022-09-09T05:18:02;18.60;99.90
69418;DHT22;56610;48.872;2.400;2022-09-09T05:20:28;18.40;99.90
69418;DHT22;56610;48.872;2.400;2022-09-09T05:22:55;18.60;99.90
69418;DHT22;56610;48.872;2.400;2022-09-09T05:25:21;18.50;99.90
69418;DHT22;56610;48.872;2.400;2022-09-09T05:27:47;18.50;99.90
69418;DHT22;56610;48.872;2.400;2022-09-09T05:30:13;18.60;99.90
69418;DHT22;56610;48.872;2.400;2022-09-09T05:32:39;18.70;99.90
69418;DHT22;56610;48.872;2.400;2022-09-09T05:35:05;18.60;99.90
69418;DHT22;56610;48.872;2.400;2022-09-09T05:37:31;18.50;99.90
69418;DHT22;56610;48.872;2.400;2022-09-09T05:39:56;18.50;99.90
69418;DHT22;56610;48.872;2.400;2022-09-09T05:42:23;18.50;99.90
69418;DHT22;56610;48.872;2.400;2022-09-09T05:44:49;18.50;99.90
69418;DHT22;56610;48.872;2.400;2022-09-09T05:47:16;18.50;99.90
69418;DHT22;56610;48.872;2.400;2022-09-09T05:49:42;18.50;99.90
69418;DHT22;56610;48.872;2.400;2022-09-09T05:52:08;18.60;99.90
69418;DHT22;56610;48.872;2.400;2022-09-09T05:54:35;18.80;99.90
69418;DHT22;56610;48.872;2.400;2022-09-09T05:57:00;19.00;99.90
69418;DHT22;56610;48.872;2.400;2022-09-09T05:59:26;19.20;99.90
69418;DHT22;56610;48.872;2.400;2022-09-09T06:01:52;19.30;99.90
69418;DHT22;56610;48.872;2.400;2022-09-09T06:04:18;19.20;99.90
69418;DHT22;56610;48.872;2.400;2022-09-09T06:06:46;19.10;99.90
69418;DHT22;56610;48.872;2.400;2022-09-09T06:09:11;19.20;99.90
69418;DHT22;56610;48.872;2.400;2022-09-09T06:11:38;19.20;99.90
69418;DHT22;56610;48.872;2.400;2022-09-09T06:14:05;19.10;99.90
69418;DHT22;56610;48.872;2.400;2022-09-09T06:16:32;19.10;99.90
69418;DHT22;56610;48.872;2.400;2022-09-09T06:19:03;19.20;99.90
69418;DHT22;56610;48.872;2.400;2022-09-09T06:21:36;19.30;99.90
69418;DHT22;56610;48.872;2.400;2022-09-09T06:24:06;19.10;99.90
69418;DHT22;56610;48.872;2.400;2022-09-09T06:26:37;18.90;99.90
69418;DHT22;56610;48.872;2.400;2022-09-09T06:29:05;18.80;99.90
69418;DHT22;56610;48.872;2.400;2022-09-09T06:31:33;18.70;99.90
69418;DHT22;56610;48.872;2.400;2022-09-09T06:33:59;18.70;99.90
69418;DHT22;56610;48.872;2.400;2022-09-09T06:36:30;18.60;99.90
69418;DHT22;56610;48.872;2.400;2022-09-09T06:38:56;18.50;99.90
69418;DHT22;56610;48.872;2.400;2022-09-09T06:41:24;18.60;99.90
69418;DHT22;56610;48.872;2.400;2022-09-09T06:43:51;18.60;99.90
69418;DHT22;56610;48.872;2.400;2022-09-09T06:46:21;18.80;99.90
69418;DHT22;56610;48.872;2.400;2022-09-09T06:48:47;18.80;99.90
69418;DHT22;56610;48.872;2.400;2022-09-09T06:51:35;18.90;99.90
69418;DHT22;56610;48.872;2.400;2022-09-09T06:54:02;19.10;99.90
69418;DHT22;56610;48.872;2.400;2022-09-09T06:58:55;19.00;99.90
69418;DHT22;56610;48.872;2.400;2022-09-09T07:01:28;19.00;99.90
69418;DHT22;56610;48.872;2.400;2022-09-09T07:03:56;19.00;99.90
69418;DHT22;56610;48.872;2.400;2022-09-09T07:06:28;19.00;99.90
69418;DHT22;56610;48.872;2.400;2022-09-09T07:08:59;19.00;99.90
69418;DHT22;56610;48.872;2.400;2022-09-09T07:11:27;18.90;99.90
69418;DHT22;56610;48.872;2.400;2022-09-09T07:13:53;18.90;99.90
69418;DHT22;56610;48.872;2.400;2022-09-09T07:16:21;18.80;99.90
69418;DHT22;56610;48.872;2.400;2022-09-09T07:18:50;18.90;99.90
69418;DHT22;56610;48.872;2.400;2022-09-09T07:21:16;19.00;99.90
69418;DHT22;56610;48.872;2.400;2022-09-09T07:23:43;19.10;99.90
69418;DHT22;56610;48.872;2.400;2022-09-09T07:26:17;19.20;99.90
69418;DHT22;56610;48.872;2.400;2022-09-09T07:28:44;19.20;99.90
69418;DHT22;56610;48.872;2.400;2022-09-09T07:31:15;19.20;99.90
69418;DHT22;56610;48.872;2.400;2022-09-09T07:33:42;19.20;99.90
69418;DHT22;56610;48.872;2.400;2022-09-09T07:36:15;19.20;99.90
69418;DHT22;56610;48.872;2.400;2022-09-09T07:38:49;19.20;99.90
69418;DHT22;56610;48.872;2.400;2022-09-09T07:41:19;19.20;99.90
69418;DHT22;56610;48.872;2.400;2022-09-09T07:43:46;19.20;99.90
69418;DHT22;56610;48.872;2.400;2022-09-09T07:46:14;19.30;99.90
69418;DHT22;56610;48.872;2.400;2022-09-09T07:49:00;19.30;99.90
69418;DHT22;56610;48.872;2.400;2022-09-09T07:51:29;19.30;99.90
69418;DHT22;56610;48.872;2.400;2022-09-09T07:53:57;19.30;99.90
69418;DHT22;56610;48.872;2.400;2022-09-09T07:56:23;19.40;99.90
69418;DHT22;56610;48.872;2.400;2022-09-09T07:58:52;19.20;99.90
69418;DHT22;56610;48.872;2.400;2022-09-09T08:01:24;19.30;99.90
69418;DHT22;56610;48.872;2.400;2022-09-09T08:06:19;19.30;99.90
69418;DHT22;56610;48.872;2.400;2022-09-09T08:08:50;19.40;99.90
69418;DHT22;56610;48.872;2.400;2022-09-09T08:11:16;19.40;99.90
69418;DHT22;56610;48.872;2.400;2022-09-09T08:14:02;19.40;99.90
69418;DHT22;56610;48.872;2.400;2022-09-09T08:16:31;19.40;99.90
69418;DHT22;56610;48.872;2.400;2022-09-09T08:18:57;19.40;99.90
69418;DHT22;56610;48.872;2.400;2022-09-09T08:21:26;19.50;99.90
69418;DHT22;56610;48.872;2.400;2022-09-09T08:23:56;19.60;99.90
69418;DHT22;56610;48.872;2.400;2022-09-09T08:26:24;19.70;99.90
69418;DHT22;56610;48.872;2.400;2022-09-09T08:28:51;19.70;99.90
69418;DHT22;56610;48.872;2.400;2022-09-09T08:31:23;19.90;99.90
69418;DHT22;56610;48.872;2.400;2022-09-09T08:33:50;19.90;99.90
69418;DHT22;56610;48.872;2.400;2022-09-09T08:36:23;20.00;99.90
69418;DHT22;56610;48.872;2.400;2022-09-09T08:38:52;19.90;99.90
69418;DHT22;56610;48.872;2.400;2022-09-09T08:52:48;19.80;99.90
69418;DHT22;56610;48.872;2.400;2022-09-09T08:58:02;20.10;99.90
69418;DHT22;56610;48.872;2.400;2022-09-09T09:00:41;20.00;99.90
69418;DHT22;56610;48.872;2.400;2022-09-09T09:03:17;20.00;99.90
69418;DHT22;56610;48.872;2.400;2022-09-09T09:08:59;20.10;99.90
69418;DHT22;56610;48.872;2.400;2022-09-09T09:11:26;20.10;99.90
69418;DHT22;56610;48.872;2.400;2022-09-09T09:14:00;20.10;99.90
69418;DHT22;56610;48.872;2.400;2022-09-09T09:16:35;20.20;99.90
69418;DHT22;56610;48.872;2.400;2022-09-09T09:19:05;20.20;99.90
69418;DHT22;56610;48.872;2.400;2022-09-09T09:21:50;20.30;99.90
69418;DHT22;56610;48.872;2.400;2022-09-09T09:24:20;20.30;99.90
69418;DHT22;56610;48.872;2.400;2022-09-09T09:26:47;20.50;99.90
69418;DHT22;56610;48.872;2.400;2022-09-09T09:29:18;20.40;99.90
69418;DHT22;56610;48.872;2.400;2022-09-09T09:31:56;20.40;99.90
69418;DHT22;56610;48.872;2.400;2022-09-09T09:34:24;20.60;99.90
69418;DHT22;56610;48.872;2.400;2022-09-09T09:36:57;20.60;99.90
69418;DHT22;56610;48.872;2.400;2022-09-09T09:39:32;20.60;99.90
69418;DHT22;56610;48.872;2.400;2022-09-09T09:42:13;20.60;99.90
69418;DHT22;56610;48.872;2.400;2022-09-09T09:44:40;20.60;99.90
69418;DHT22;56610;48.872;2.400;2022-09-09T09:47:08;20.50;99.90
69418;DHT22;56610;48.872;2.400;2022-09-09T09:49:36;20.50;99.90
69418;DHT22;56610;48.872;2.400;2022-09-09T09:52:04;20.50;99.90
69418;DHT22;56610;48.872;2.400;2022-09-09T09:54:31;20.50;99.90
69418;DHT22;56610;48.872;2.400;2022-09-09T09:57:09;20.60;99.90
69418;DHT22;56610;48.872;2.400;2022-09-09T09:59:36;20.40;99.90
69418;DHT22;56610;48.872;2.400;2022-09-09T10:02:24;20.40;99.90
69418;DHT22;56610;48.872;2.400;2022-09-09T10:05:08;20.40;99.90
69418;DHT22;56610;48.872;2.400;2022-09-09T10:07:37;20.50;99.90
69418;DHT22;56610;48.872;2.400;2022-09-09T10:10:04;20.60;99.90
69418;DHT22;56610;48.872;2.400;2022-09-09T10:15:00;20.60;99.90
69418;DHT22;56610;48.872;2.400;2022-09-09T10:17:57;20.60;99.90
69418;DHT22;56610;48.872;2.400;2022-09-09T10:26:28;20.80;99.90
69418;DHT22;56610;48.872;2.400;2022-09-09T10:29:23;20.80;99.90
69418;DHT22;56610;48.872;2.400;2022-09-09T10:40:27;20.80;99.90
69418;DHT22;56610;48.872;2.400;2022-09-09T10:42:55;20.90;99.90
69418;DHT22;56610;48.872;2.400;2022-09-09T10:50:53;21.10;99.90
69418;DHT22;56610;48.872;2.400;2022-09-09T10:53:35;21.00;99.90
69418;DHT22;56610;48.872;2.400;2022-09-09T10:56:09;21.10;99.90
69418;DHT22;56610;48.872;2.400;2022-09-09T10:58:47;21.10;99.90
69418;DHT22;56610;48.872;2.400;2022-09-09T11:01:22;21.10;99.90
69418;DHT22;56610;48.872;2.400;2022-09-09T11:03:58;21.20;99.90
69418;DHT22;56610;48.872;2.400;2022-09-09T11:06:35;21.00;99.90
69418;DHT22;56610;48.872;2.400;2022-09-09T11:09:03;21.10;99.90
69418;DHT22;56610;48.872;2.400;2022-09-09T11:11:53;21.20;99.90
69418;DHT22;56610;48.872;2.400;2022-09-09T11:16:56;21.20;99.90
69418;DHT22;56610;48.872;2.400;2022-09-09T11:19:39;21.30;99.90
69418;DHT22;56610;48.872;2.400;2022-09-09T11:24:54;21.60;99.90
69418;DHT22;56610;48.872;2.400;2022-09-09T11:27:29;21.70;99.90
69418;DHT22;56610;48.872;2.400;2022-09-09T11:30:19;21.60;99.90
69418;DHT22;56610;48.872;2.400;2022-09-09T11:33:04;21.60;99.90
69418;DHT22;56610;48.872;2.400;2022-09-09T11:41:07;21.60;99.90
69418;DHT22;56610;48.872;2.400;2022-09-09T11:43:46;21.70;99.90
69418;DHT22;56610;48.872;2.400;2022-09-09T11:46:15;21.70;99.90
69418;DHT22;56610;48.872;2.400;2022-09-09T11:48:43;21.80;99.90
69418;DHT22;56610;48.872;2.400;2022-09-09T11:51:13;21.70;99.90
69418;DHT22;56610;48.872;2.400;2022-09-09T11:53:53;21.70;99.90
69418;DHT22;56610;48.872;2.400;2022-09-09T11:56:44;21.70;99.90
69418;DHT22;56610;48.872;2.400;2022-09-09T11:59:22;21.60;99.90
69418;DHT22;56610;48.872;2.400;2022-09-09T12:05:07;21.70;99.90
69418;DHT22;56610;48.872;2.400;2022-09-09T12:07:40;21.70;99.90
69418;DHT22;56610;48.872;2.400;2022-09-09T12:12:37;21.60;99.90
69418;DHT22;56610;48.872;2.400;2022-09-09T12:15:25;21.70;99.90
69418;DHT22;56610;48.872;2.400;2022-09-09T12:17:55;21.80;99.90
69418;DHT22;56610;48.872;2.400;2022-09-09T12:28:20;21.90;99.90
69418;DHT22;56610;48.872;2.400;2022-09-09T12:31:06;22.00;99.90
69418;DHT22;56610;48.872;2.400;2022-09-09T12:33:39;21.90;99.90
69418;DHT22;56610;48.872;2.400;2022-09-09T12:36:13;21.90;99.90
69418;DHT22;56610;48.872;2.400;2022-09-09T12:38:41;21.70;99.90
69418;DHT22;56610;48.872;2.400;2022-09-09T12:41:22;21.50;99.90
69418;DHT22;56610;48.872;2.400;2022-09-09T12:43:49;21.30;99.90
69418;DHT22;56610;48.872;2.400;2022-09-09T12:46:28;21.30;99.90
69418;DHT22;56610;48.872;2.400;2022-09-09T12:48:57;21.20;99.90
69418;DHT22;56610;48.872;2.400;2022-09-09T12:51:29;21.10;99.90
69418;DHT22;56610;48.872;2.400;2022-09-09T12:53:56;21.10;99.90
69418;DHT22;56610;48.872;2.400;2022-09-09T12:56:24;21.10;99.90
69418;DHT22;56610;48.872;2.400;2022-09-09T12:58:53;21.10;99.90
69418;DHT22;56610;48.872;2.400;2022-09-09T13:01:30;21.00;99.90
69418;DHT22;56610;48.872;2.400;2022-09-09T13:03:56;21.00;99.90
69418;DHT22;56610;48.872;2.400;2022-09-09T13:06:27;20.90;99.90
69418;DHT22;56610;48.872;2.400;2022-09-09T13:08:54;20.90;99.90
69418;DHT22;56610;48.872;2.400;2022-09-09T13:11:52;20.80;99.90
69418;DHT22;56610;48.872;2.400;2022-09-09T13:14:19;20.80;99.90
69418;DHT22;56610;48.872;2.400;2022-09-09T13:16:59;20.70;99.90
69418;DHT22;56610;48.872;2.400;2022-09-09T13:19:25;20.70;99.90
69418;DHT22;56610;48.872;2.400;2022-09-09T13:21:53;20.50;99.90
69418;DHT22;56610;48.872;2.400;2022-09-09T13:24:27;20.60;99.90
69418;DHT22;56610;48.872;2.400;2022-09-09T13:26:59;20.40;99.90
69418;DHT22;56610;48.872;2.400;2022-09-09T13:29:27;20.40;99.90
69418;DHT22;56610;48.872;2.400;2022-09-09T13:31:53;20.40;99.90
69418;DHT22;56610;48.872;2.400;2022-09-09T13:34:33;20.20;99.90
69418;DHT22;56610;48.872;2.400;2022-09-09T13:37:06;20.10;99.90
69418;DHT22;56610;48.872;2.400;2022-09-09T13:39:37;19.90;99.90
69418;DHT22;56610;48.872;2.400;2022-09-09T13:42:03;19.90;99.90
69418;DHT22;56610;48.872;2.400;2022-09-09T13:44:34;19.70;99.90
69418;DHT22;56610;48.872;2.400;2022-09-09T13:47:06;19.60;99.90
69418;DHT22;56610;48.872;2.400;2022-09-09T13:49:32;19.60;99.90
69418;DHT22;56610;48.872;2.400;2022-09-09T13:52:10;19.70;99.90
69418;DHT22;56610;48.872;2.400;2022-09-09T13:54:36;19.80;99.90
69418;DHT22;56610;48.872;2.400;2022-09-09T13:57:02;19.80;99.90
69418;DHT22;56610;48.872;2.400;2022-09-09T13:59:27;19.80;99.90
69418;DHT22;56610;48.872;2.400;2022-09-09T14:01:53;19.80;99.90
69418;DHT22;56610;48.872;2.400;2022-09-09T14:04:19;20.10;99.90
69418;DHT22;56610;48.872;2.400;2022-09-09T14:06:49;20.20;99.90
69418;DHT22;56610;48.872;2.400;2022-09-09T14:09:16;20.30;99.90
69418;DHT22;56610;48.872;2.400;2022-09-09T14:11:43;20.30;99.90
69418;DHT22;56610;48.872;2.400;2022-09-09T14:14:09;20.40;99.90
69418;DHT22;56610;48.872;2.400;2022-09-09T14:16:34;20.50;99.90
69418;DHT22;56610;48.872;2.400;2022-09-09T14:19:00;20.50;99.90
69418;DHT22;56610;48.872;2.400;2022-09-09T14:21:27;20.50;99.90
69418;DHT22;56610;48.872;2.400;2022-09-09T14:23:53;20.70;99.90
69418;DHT22;56610;48.872;2.400;2022-09-09T14:26:22;20.50;99.90
69418;DHT22;56610;48.872;2.400;2022-09-09T14:28:48;20.50;99.90
69418;DHT22;56610;48.872;2.400;2022-09-09T14:31:15;20.70;99.90
69418;DHT22;56610;48.872;2.400;2022-09-09T14:33:43;20.80;99.90
69418;DHT22;56610;48.872;2.400;2022-09-09T14:36:09;20.90;99.90
69418;DHT22;56610;48.872;2.400;2022-09-09T14:38:37;21.00;99.90
69418;DHT22;56610;48.872;2.400;2022-09-09T14:41:08;21.20;99.90
69418;DHT22;56610;48.872;2.400;2022-09-09T14:43:34;21.30;99.90
69418;DHT22;56610;48.872;2.400;2022-09-09T14:46:10;21.40;99.90
69418;DHT22;56610;48.872;2.400;2022-09-09T14:48:36;21.50;99.90
69418;DHT22;56610;48.872;2.400;2022-09-09T14:51:10;21.60;99.90
69418;DHT22;56610;48.872;2.400;2022-09-09T14:53:36;21.50;99.90
69418;DHT22;56610;48.872;2.400;2022-09-09T14:56:16;21.60;99.90
69418;DHT22;56610;48.872;2.400;2022-09-09T14:58:42;21.60;99.90
69418;DHT22;56610;48.872;2.400;2022-09-09T15:01:14;21.60;99.90
69418;DHT22;56610;48.872;2.400;2022-09-09T15:03:41;21.40;99.90
69418;DHT22;56610;48.872;2.400;2022-09-09T15:06:08;21.40;99.90
69418;DHT22;56610;48.872;2.400;2022-09-09T15:08:39;21.40;99.90
69418;DHT22;56610;48.872;2.400;2022-09-09T15:11:06;21.50;99.90
69418;DHT22;56610;48.872;2.400;2022-09-09T15:13:35;21.50;99.90
69418;DHT22;56610;48.872;2.400;2022-09-09T15:16:10;21.80;99.90
69418;DHT22;56610;48.872;2.400;2022-09-09T15:18:36;21.90;99.90
69418;DHT22;56610;48.872;2.400;2022-09-09T15:21:05;22.00;99.90
69418;DHT22;56610;48.872;2.400;2022-09-09T15:23:32;22.10;99.90
69418;DHT22;56610;48.872;2.400;2022-09-09T15:25:58;22.30;99.90
69418;DHT22;56610;48.872;2.400;2022-09-09T15:28:24;22.50;99.90
69418;DHT22;56610;48.872;2.400;2022-09-09T15:30:51;22.70;99.90
69418;DHT22;56610;48.872;2.400;2022-09-09T15:33:18;22.80;99.90
69418;DHT22;56610;48.872;2.400;2022-09-09T15:35:44;23.00;99.90
69418;DHT22;56610;48.872;2.400;2022-09-09T15:38:10;22.90;99.90
69418;DHT22;56610;48.872;2.400;2022-09-09T15:40:35;22.90;99.90
69418;DHT22;56610;48.872;2.400;2022-09-09T15:43:01;22.90;99.90
69418;DHT22;56610;48.872;2.400;2022-09-09T15:45:28;22.70;99.90
69418;DHT22;56610;48.872;2.400;2022-09-09T15:47:56;22.60;99.90
69418;DHT22;56610;48.872;2.400;2022-09-09T15:50:21;22.40;99.90
69418;DHT22;56610;48.872;2.400;2022-09-09T15:52:47;22.40;99.90
69418;DHT22;56610;48.872;2.400;2022-09-09T15:55:13;22.20;99.90
69418;DHT22;56610;48.872;2.400;2022-09-09T15:57:38;22.10;99.90
69418;DHT22;56610;48.872;2.400;2022-09-09T16:00:04;22.00;99.90
69418;DHT22;56610;48.872;2.400;2022-09-09T16:02:31;21.90;99.90
69418;DHT22;56610;48.872;2.400;2022-09-09T16:04:57;21.90;99.90
69418;DHT22;56610;48.872;2.400;2022-09-09T16:07:23;21.90;99.90
69418;DHT22;56610;48.872;2.400;2022-09-09T16:09:48;22.00;99.90
69418;DHT22;56610;48.872;2.400;2022-09-09T16:12:17;21.90;99.90
69418;DHT22;56610;48.872;2.400;2022-09-09T16:14:42;21.90;99.90
69418;DHT22;56610;48.872;2.400;2022-09-09T16:17:08;22.00;99.90
69418;DHT22;56610;48.872;2.400;2022-09-09T16:19:34;21.90;99.90
69418;DHT22;56610;48.872;2.400;2022-09-09T16:22:00;21.80;99.90
69418;DHT22;56610;48.872;2.400;2022-09-09T16:24:26;21.80;99.90
69418;DHT22;56610;48.872;2.400;2022-09-09T16:26:53;21.80;99.90
69418;DHT22;56610;48.872;2.400;2022-09-09T16:29:20;21.80;99.90
69418;DHT22;56610;48.872;2.400;2022-09-09T16:31:48;21.80;99.90
69418;DHT22;56610;48.872;2.400;2022-09-09T16:34:15;21.70;99.90
69418;DHT22;56610;48.872;2.400;2022-09-09T16:36:42;21.50;99.90
69418;DHT22;56610;48.872;2.400;2022-09-09T16:39:13;21.50;99.90
69418;DHT22;56610;48.872;2.400;2022-09-09T16:41:40;21.40;99.90
69418;DHT22;56610;48.872;2.400;2022-09-09T16:44:09;21.30;99.90
69418;DHT22;56610;48.872;2.400;2022-09-09T16:46:37;21.40;99.90
69418;DHT22;56610;48.872;2.400;2022-09-09T16:49:05;21.30;99.90
69418;DHT22;56610;48.872;2.400;2022-09-09T16:51:39;21.20;99.90
69418;DHT22;56610;48.872;2.400;2022-09-09T16:54:07;21.20;99.90
69418;DHT22;56610;48.872;2.400;2022-09-09T16:56:36;21.30;99.90
69418;DHT22;56610;48.872;2.400;2022-09-09T16:59:09;21.30;99.90
69418;DHT22;56610;48.872;2.400;2022-09-09T17:01:37;21.10;99.90
69418;DHT22;56610;48.872;2.400;2022-09-09T17:04:05;21.10;99.90
69418;DHT22;56610;48.872;2.400;2022-09-09T17:06:32;20.90;99.90
69418;DHT22;56610;48.872;2.400;2022-09-09T17:09:02;21.00;99.90
69418;DHT22;56610;48.872;2.400;2022-09-09T17:11:28;20.90;99.90
69418;DHT22;56610;48.872;2.400;2022-09-09T17:13:55;20.90;99.90
69418;DHT22;56610;48.872;2.400;2022-09-09T17:16:23;20.90;99.90
69418;DHT22;56610;48.872;2.400;2022-09-09T17:18:49;20.60;99.90
69418;DHT22;56610;48.872;2.400;2022-09-09T17:21:18;20.60;99.90
69418;DHT22;56610;48.872;2.400;2022-09-09T17:23:44;20.60;99.90
69418;DHT22;56610;48.872;2.400;2022-09-09T17:26:13;20.60;99.90
69418;DHT22;56610;48.872;2.400;2022-09-09T17:28:40;20.50;99.90
69418;DHT22;56610;48.872;2.400;2022-09-09T17:31:07;20.60;99.90
69418;DHT22;56610;48.872;2.400;2022-09-09T17:33:38;20.50;99.90
69418;DHT22;56610;48.872;2.400;2022-09-09T17:36:13;20.40;99.90
69418;DHT22;56610;48.872;2.400;2022-09-09T17:38:39;20.60;99.90
69418;DHT22;56610;48.872;2.400;2022-09-09T17:41:17;20.60;99.90
69418;DHT22;56610;48.872;2.400;2022-09-09T17:43:43;20.50;99.90
69418;DHT22;56610;48.872;2.400;2022-09-09T17:46:10;20.50;99.90